Time;durP1;ratioP1;P1;durP2;ratioP2;P2;SDS_P1;SDS_P2;PMS_P1;PMS_P2;Temp;Humidity;BMP_temperature;BMP_pressure;BME280_temperature;BME280_humidity;BME280_pressure;Samples;Min_cycle;Max_cycle;Signal;HPM_P1;HPM_P2
2021/01/06 00:00:42;;;;;;;31.70;17.88;;;3.90;93.10;;;;;;5076730;28;20028;-82
2021/01/06 00:03:20;;;;;;;27.63;17.35;;;3.90;93.20;;;;;;5094387;28;20043;-82
2021/01/06 00:05:50;;;;;;;26.90;16.27;;;3.90;93.20;;;;;;5094588;28;20035;-83
2021/01/06 00:08:16;;;;;;;25.35;15.13;;;3.90;93.20;;;;;;5076264;28;20115;-83
2021/01/06 00:10:43;;;;;;;25.42;16.20;;;3.90;93.20;;;;;;5076020;28;20361;-83
2021/01/06 00:13:09;;;;;;;27.90;16.48;;;3.90;93.30;;;;;;5059572;28;20024;-83
2021/01/06 00:15:37;;;;;;;27.65;16.45;;;3.90;93.30;;;;;;5059784;28;20023;-83
2021/01/06 00:18:04;;;;;;;23.15;15.25;;;3.90;93.30;;;;;;5094237;28;20031;-83
2021/01/06 00:20:31;;;;;;;31.45;17.30;;;3.90;93.30;;;;;;5076078;28;20122;-82
2021/01/06 00:22:57;;;;;;;23.20;14.73;;;4.00;93.40;;;;;;5075602;28;20388;-81
2021/01/06 00:25:32;;;;;;;23.58;15.15;;;4.00;93.40;;;;;;5075959;28;20028;-81
2021/01/06 00:27:58;;;;;;;26.70;15.55;;;3.90;93.40;;;;;;5093853;28;20035;-81
2021/01/06 00:30:36;;;;;;;24.33;15.10;;;3.90;93.40;;;;;;5075439;28;20064;-82
2021/01/06 00:33:05;;;;;;;24.13;15.20;;;4.00;93.50;;;;;;5093671;28;20042;-82
2021/01/06 00:35:31;;;;;;;28.13;16.02;;;4.00;93.50;;;;;;5075566;28;20111;-81
2021/01/06 00:37:57;;;;;;;25.88;15.48;;;4.00;93.50;;;;;;5075647;28;20081;-82
2021/01/06 00:40:28;;;;;;;23.00;15.00;;;3.90;93.50;;;;;;5070972;28;20036;-81
2021/01/06 00:43:00;;;;;;;26.02;16.30;;;4.00;93.50;;;;;;5070320;28;20089;-81
2021/01/06 00:45:26;;;;;;;34.22;18.27;;;4.00;93.50;;;;;;5060016;28;20035;-82
2021/01/06 00:47:53;;;;;;;25.27;16.42;;;4.00;93.60;;;;;;5093604;28;20044;-81
2021/01/06 00:50:20;;;;;;;26.50;17.05;;;4.00;93.60;;;;;;5075194;28;20676;-81
2021/01/06 00:52:46;;;;;;;26.50;15.13;;;4.00;93.60;;;;;;5075256;28;20028;-82
2021/01/06 00:55:12;;;;;;;33.83;17.55;;;4.00;93.60;;;;;;5075378;28;20028;-81
2021/01/06 00:57:38;;;;;;;27.95;17.27;;;4.00;93.60;;;;;;5058763;28;20031;-82
2021/01/06 01:00:14;;;;;;;26.30;16.92;;;4.00;93.70;;;;;;5075246;28;20384;-81
2021/01/06 01:02:39;;;;;;;31.65;17.90;;;4.00;93.70;;;;;;5075236;28;20028;-81
2021/01/06 01:05:06;;;;;;;31.20;18.55;;;4.00;93.70;;;;;;5058548;28;20039;-81
2021/01/06 01:07:32;;;;;;;34.88;19.25;;;4.00;93.70;;;;;;5075162;28;20107;-81
2021/01/06 01:09:57;;;;;;;30.05;18.73;;;4.00;93.70;;;;;;5058514;28;20115;-81
2021/01/06 01:12:23;;;;;;;34.05;18.75;;;4.00;93.70;;;;;;5075601;28;20076;-82
2021/01/06 01:14:50;;;;;;;26.30;17.00;;;4.00;93.70;;;;;;5058344;28;20024;-82
2021/01/06 01:17:18;;;;;;;26.15;16.75;;;4.00;93.70;;;;;;5058428;28;20028;-82
2021/01/06 01:19:44;;;;;;;30.00;17.97;;;4.00;93.70;;;;;;5057901;28;20493;-81
2021/01/06 01:22:10;;;;;;;27.60;17.27;;;4.00;93.70;;;;;;5077615;28;20040;-81
2021/01/06 01:24:35;;;;;;;29.05;17.20;;;4.00;93.70;;;;;;5079144;28;20024;-81
2021/01/06 01:27:01;;;;;;;33.58;19.50;;;4.10;93.70;;;;;;5062426;28;20020;-82
2021/01/06 01:29:27;;;;;;;28.88;17.83;;;4.00;93.70;;;;;;5062360;28;20096;-81
2021/01/06 01:31:53;;;;;;;32.00;19.17;;;4.00;93.70;;;;;;5058853;28;20361;-80
2021/01/06 01:34:18;;;;;;;32.45;18.95;;;4.10;93.70;;;;;;5090337;28;20024;-80
2021/01/06 01:36:51;;;;;;;27.88;17.95;;;4.10;93.70;;;;;;5062363;28;20028;-80
2021/01/06 01:39:18;;;;;;;34.97;20.25;;;4.10;94.00;;;;;;5078862;28;20052;-79
2021/01/06 01:41:43;;;;;;;35.03;20.50;;;4.10;93.70;;;;;;5078772;28;20123;-80
2021/01/06 01:44:12;;;;;;;32.42;19.58;;;4.10;93.70;;;;;;5062107;28;20119;-79
2021/01/06 01:46:45;;;;;;;28.65;18.13;;;4.10;93.70;;;;;;5078653;28;20046;-79
2021/01/06 01:49:20;;;;;;;29.52;17.48;;;4.10;93.70;;;;;;5078462;28;20028;-79
2021/01/06 01:52:03;;;;;;;30.60;17.73;;;4.10;93.70;;;;;;5078227;28;20111;-80
2021/01/06 01:54:31;;;;;;;32.22;19.33;;;4.10;93.70;;;;;;5096659;28;20021;-80
2021/01/06 01:57:12;;;;;;;32.33;19.30;;;4.10;93.70;;;;;;5078867;28;20081;-79
2021/01/06 01:59:52;;;;;;;28.88;18.10;;;4.10;93.70;;;;;;5078454;28;20024;-80
2021/01/06 02:02:32;;;;;;;27.88;17.60;;;4.10;93.70;;;;;;5078492;28;20037;-80
2021/01/06 02:05:05;;;;;;;28.73;16.65;;;4.10;93.70;;;;;;5077996;28;20559;-80
2021/01/06 02:07:38;;;;;;;33.33;18.50;;;4.10;93.70;;;;;;5077946;28;20088;-80
2021/01/06 02:10:18;;;;;;;33.67;19.15;;;4.10;93.70;;;;;;5096883;28;20020;-80
2021/01/06 02:12:53;;;;;;;28.90;18.30;;;4.10;93.70;;;;;;5078808;28;20013;-80
2021/01/06 02:15:19;;;;;;;28.40;17.20;;;4.10;93.70;;;;;;5096357;28;20111;-79
2021/01/06 02:17:44;;;;;;;29.77;19.17;;;4.10;93.70;;;;;;5078038;28;20048;-79
2021/01/06 02:20:15;;;;;;;31.23;19.80;;;4.10;93.60;;;;;;5078156;28;20028;-79
2021/01/06 02:22:41;;;;;;;29.25;18.52;;;4.10;93.70;;;;;;5077839;28;20083;-80
2021/01/06 02:25:08;;;;;;;28.70;18.42;;;4.10;93.60;;;;;;5061247;28;20058;-80
2021/01/06 02:27:34;;;;;;;28.27;17.70;;;4.10;93.70;;;;;;5061579;28;20038;-80
2021/01/06 02:29:59;;;;;;;33.05;18.75;;;4.20;93.60;;;;;;5092328;28;20025;-80
2021/01/06 02:32:25;;;;;;;33.78;20.17;;;4.10;93.60;;;;;;5077682;28;20476;-80
2021/01/06 02:34:51;;;;;;;31.95;19.88;;;4.20;93.60;;;;;;5094728;28;20024;-80
2021/01/06 02:37:16;;;;;;;33.08;20.83;;;4.10;93.80;;;;;;5094753;28;20020;-81
2021/01/06 02:39:42;;;;;;;36.08;20.73;;;4.10;93.60;;;;;;5095670;28;20023;-82
2021/01/06 02:42:08;;;;;;;35.17;19.63;;;4.10;93.60;;;;;;5077718;28;20024;-82
2021/01/06 02:44:34;;;;;;;31.90;19.95;;;4.10;93.60;;;;;;5094590;28;20392;-81
2021/01/06 02:47:00;;;;;;;30.98;19.00;;;4.10;93.60;;;;;;5061086;28;20029;-81
2021/01/06 02:49:26;;;;;;;33.05;20.90;;;4.10;93.60;;;;;;5057579;28;20028;-82
2021/01/06 02:51:59;;;;;;;32.67;19.58;;;4.20;93.60;;;;;;5060661;28;20106;-81
2021/01/06 02:54:34;;;;;;;33.25;20.33;;;4.10;93.60;;;;;;5077469;28;20016;-82
2021/01/06 02:57:01;;;;;;;32.60;19.65;;;4.20;93.60;;;;;;5111540;28;20020;-82
2021/01/06 02:59:34;;;;;;;35.00;19.88;;;4.10;93.90;;;;;;5088542;28;20056;-82
2021/01/06 03:02:01;;;;;;;33.67;20.60;;;4.20;93.60;;;;;;5095175;28;20024;-82
2021/01/06 03:04:31;;;;;;;37.97;21.50;;;4.10;93.60;;;;;;5095372;28;20039;-82
2021/01/06 03:07:02;;;;;;;31.08;19.60;;;4.20;93.60;;;;;;5077320;28;20525;-81
2021/01/06 03:09:43;;;;;;;34.83;20.17;;;4.10;93.60;;;;;;5095348;28;20383;-81
2021/01/06 03:12:19;;;;;;;33.00;19.50;;;4.10;93.60;;;;;;5076655;28;20027;-82
2021/01/06 03:14:45;;;;;;;37.28;21.35;;;4.10;93.60;;;;;;5077144;28;20027;-81
2021/01/06 03:17:14;;;;;;;37.92;19.92;;;4.10;93.60;;;;;;5095174;28;20020;-80
2021/01/06 03:19:43;;;;;;;33.25;20.13;;;4.20;93.70;;;;;;5077120;28;20024;-80
2021/01/06 03:22:14;;;;;;;37.33;19.77;;;4.10;93.60;;;;;;5094887;28;20115;-80
2021/01/06 03:24:59;;;;;;;36.25;20.35;;;4.10;93.60;;;;;;5076939;28;20032;-80
2021/01/06 03:27:27;;;;;;;35.78;20.25;;;4.10;93.60;;;;;;5094868;28;20508;-79
2021/01/06 03:29:54;;;;;;;37.85;21.58;;;4.10;93.60;;;;;;5094699;28;20032;-79
2021/01/06 03:32:48;;;;;;;37.72;21.58;;;4.10;93.60;;;;;;5076310;28;20062;-79
2021/01/06 03:35:26;;;;;;;41.63;21.17;;;4.00;93.60;;;;;;5076649;28;20039;-79
2021/01/06 03:38:01;;;;;;;37.00;21.95;;;4.00;93.60;;;;;;5056620;28;20112;-79
2021/01/06 03:40:33;;;;;;;37.67;21.10;;;4.00;93.70;;;;;;5056655;28;20020;-79
2021/01/06 03:42:59;;;;;;;41.67;20.67;;;4.00;93.70;;;;;;5074458;28;20063;-81
2021/01/06 03:45:27;;;;;;;36.05;21.00;;;4.00;93.70;;;;;;5073842;28;20029;-80
2021/01/06 03:47:59;;;;;;;40.45;22.35;;;4.00;93.70;;;;;;5072749;28;20039;-80
2021/01/06 03:50:39;;;;;;;34.92;19.85;;;4.00;93.70;;;;;;5076190;28;20059;-80
2021/01/06 03:53:38;;;;;;;37.00;21.35;;;4.00;93.70;;;;;;5094527;28;20024;-80
2021/01/06 03:56:11;;;;;;;40.25;21.08;;;4.00;93.70;;;;;;5054242;28;20032;-80
2021/01/06 03:58:53;;;;;;;35.80;20.83;;;4.00;93.70;;;;;;5076264;28;20028;-80
2021/01/06 04:01:56;;;;;;;28.52;18.05;;;4.00;93.70;;;;;;5093941;28;20380;-80
2021/01/06 04:04:39;;;;;;;31.05;18.85;;;4.00;93.70;;;;;;5076030;28;20032;-79
2021/01/06 04:07:17;;;;;;;34.00;19.75;;;4.00;93.70;;;;;;5076025;28;20058;-81
2021/01/06 04:09:54;;;;;;;37.67;20.88;;;4.00;93.60;;;;;;5075882;28;20028;-81
2021/01/06 04:12:21;;;;;;;32.10;18.98;;;4.00;93.60;;;;;;5094042;28;20128;-82
2021/01/06 04:14:47;;;;;;;29.98;18.88;;;4.00;93.60;;;;;;5059158;28;20024;-81
2021/01/06 04:17:30;;;;;;;31.98;19.40;;;4.00;93.60;;;;;;5093514;28;20035;-81
2021/01/06 04:20:06;;;;;;;30.77;18.17;;;4.00;93.60;;;;;;5075778;28;20020;-81
2021/01/06 04:22:47;;;;;;;32.42;18.63;;;4.00;93.60;;;;;;5075417;28;20051;-81
2021/01/06 04:25:24;;;;;;;35.00;18.77;;;4.00;93.50;;;;;;5093652;28;20035;-81
2021/01/06 04:27:53;;;;;;;33.28;20.20;;;4.00;93.50;;;;;;5075018;28;20519;-81
2021/01/06 04:30:34;;;;;;;34.05;19.60;;;4.00;93.50;;;;;;5075752;28;20088;-82
2021/01/06 04:33:02;;;;;;;40.60;20.50;;;4.00;93.50;;;;;;5075303;28;20036;-82
2021/01/06 04:35:29;;;;;;;32.00;19.30;;;3.90;93.50;;;;;;5075459;28;20020;-82
2021/01/06 04:37:57;;;;;;;32.38;19.30;;;3.90;93.50;;;;;;5093397;28;20020;-81
2021/01/06 04:40:25;;;;;;;34.85;20.00;;;3.90;93.60;;;;;;5058550;28;20055;-82
2021/01/06 04:42:51;;;;;;;32.30;17.75;;;3.90;93.60;;;;;;5075252;28;20035;-81
2021/01/06 04:45:23;;;;;;;35.00;19.95;;;3.90;93.60;;;;;;5055001;28;20362;-82
2021/01/06 04:48:13;;;;;;;33.42;19.80;;;3.90;93.60;;;;;;5089126;28;20058;-82
2021/01/06 04:50:56;;;;;;;29.88;18.23;;;3.90;93.60;;;;;;5055416;28;20024;-82
2021/01/06 04:53:31;;;;;;;28.45;17.30;;;3.90;93.60;;;;;;5055260;28;20174;-81
2021/01/06 04:56:21;;;;;;;34.38;18.67;;;3.90;93.60;;;;;;5073188;28;20389;-82
2021/01/06 04:59:06;;;;;;;28.27;17.15;;;4.00;93.60;;;;;;5072110;28;20027;-82
2021/01/06 05:02:19;;;;;;;31.38;18.90;;;4.00;93.60;;;;;;5075203;28;20024;-81
2021/01/06 05:05:13;;;;;;;35.90;19.60;;;4.00;93.60;;;;;;5093391;28;20028;-81
2021/01/06 05:07:56;;;;;;;29.45;18.88;;;4.00;93.50;;;;;;5055097;28;20028;-81
2021/01/06 05:10:40;;;;;;;31.83;18.48;;;4.00;93.50;;;;;;5055018;28;20433;-82
2021/01/06 05:13:41;;;;;;;30.95;19.10;;;3.90;93.40;;;;;;5055158;28;20074;-82
2021/01/06 05:16:34;;;;;;;35.22;20.98;;;3.90;93.40;;;;;;5055246;28;20152;-82
2021/01/06 05:19:02;;;;;;;29.63;18.88;;;4.00;93.50;;;;;;5055142;28;20017;-82
2021/01/06 05:21:29;;;;;;;31.98;20.17;;;3.90;93.40;;;;;;5054798;28;20040;-82
2021/01/06 05:24:03;;;;;;;32.90;19.40;;;3.90;93.40;;;;;;5054900;28;20473;-81
2021/01/06 05:26:29;;;;;;;29.58;18.40;;;3.90;93.30;;;;;;5055133;28;20033;-81
2021/01/06 05:28:54;;;;;;;27.70;17.90;;;3.90;93.30;;;;;;5079345;28;20476;-82
2021/01/06 05:31:20;;;;;;;31.90;19.67;;;3.90;93.30;;;;;;5092972;28;20495;-82
2021/01/06 05:33:52;;;;;;;35.83;20.65;;;3.90;93.30;;;;;;5074561;28;20092;-82
2021/01/06 05:36:27;;;;;;;32.92;20.38;;;3.90;93.20;;;;;;5075432;28;20024;-82
2021/01/06 05:38:53;;;;;;;32.08;19.30;;;3.90;93.20;;;;;;5093854;28;20020;-82
2021/01/06 05:41:19;;;;;;;29.73;19.30;;;3.90;93.20;;;;;;5058272;28;20036;-81
2021/01/06 05:43:50;;;;;;;31.80;19.27;;;3.90;93.20;;;;;;5058205;28;20035;-81
2021/01/06 05:46:30;;;;;;;28.45;18.45;;;3.90;93.20;;;;;;5093079;28;20024;-82
2021/01/06 05:49:00;;;;;;;27.92;17.70;;;3.90;93.20;;;;;;5074999;28;20032;-82
2021/01/06 05:51:33;;;;;;;28.15;17.88;;;3.90;93.20;;;;;;5074827;28;20036;-82
2021/01/06 05:54:14;;;;;;;29.63;18.85;;;3.90;93.20;;;;;;5092865;28;20017;-80
2021/01/06 05:56:52;;;;;;;29.42;18.23;;;3.90;93.10;;;;;;5092589;28;20106;-80
2021/01/06 05:59:47;;;;;;;30.30;19.80;;;4.00;93.10;;;;;;5093001;28;20024;-80
2021/01/06 06:02:31;;;;;;;30.58;18.25;;;3.90;93.30;;;;;;5054618;28;20054;-80
2021/01/06 06:05:15;;;;;;;29.05;18.92;;;4.00;93.10;;;;;;5088169;28;20073;-80
2021/01/06 06:08:07;;;;;;;23.98;17.02;;;4.00;93.10;;;;;;5061201;28;20023;-80
2021/01/06 06:11:14;;;;;;;27.33;17.88;;;4.00;93.10;;;;;;5078154;28;20492;-80
2021/01/06 06:13:55;;;;;;;25.52;17.75;;;3.90;93.10;;;;;;5058260;28;20382;-80
2021/01/06 06:16:49;;;;;;;27.25;17.42;;;4.00;93.00;;;;;;5058216;28;20021;-80
2021/01/06 06:19:36;;;;;;;26.63;18.52;;;4.00;93.00;;;;;;5057939;28;20393;-80
2021/01/06 06:22:21;;;;;;;27.48;17.85;;;4.00;92.90;;;;;;5075881;28;20447;-81
2021/01/06 06:24:49;;;;;;;28.05;18.05;;;4.00;92.90;;;;;;5070619;28;20495;-80
2021/01/06 06:27:57;;;;;;;29.17;18.67;;;3.90;92.80;;;;;;5077852;28;20088;-80
2021/01/06 06:30:48;;;;;;;27.30;18.48;;;3.90;92.80;;;;;;5064698;28;20097;-81
2021/01/06 06:33:34;;;;;;;28.33;18.55;;;3.90;92.80;;;;;;5077849;28;20036;-81
2021/01/06 06:36:08;;;;;;;27.08;18.02;;;3.90;92.80;;;;;;5096082;28;20020;-84
2021/01/06 06:38:43;;;;;;;28.02;17.10;;;3.90;92.80;;;;;;5078595;28;20111;-84
2021/01/06 06:41:21;;;;;;;30.73;19.60;;;3.90;92.80;;;;;;5078115;28;20042;-81
2021/01/06 06:44:11;;;;;;;28.35;19.50;;;3.90;92.70;;;;;;5077757;28;20498;-81
2021/01/06 06:46:42;;;;;;;28.63;19.08;;;3.90;92.70;;;;;;5087123;28;20490;-80
2021/01/06 06:49:11;;;;;;;27.30;18.35;;;3.90;92.70;;;;;;5095711;28;20070;-83
2021/01/06 06:51:45;;;;;;;26.58;18.77;;;3.90;92.70;;;;;;5078202;28;20020;-84
2021/01/06 06:54:32;;;;;;;26.30;16.95;;;3.90;92.70;;;;;;5078291;28;20024;-84
2021/01/06 06:57:03;;;;;;;30.98;19.33;;;3.90;92.80;;;;;;5077995;28;20021;-83
2021/01/06 06:59:37;;;;;;;24.80;17.85;;;3.90;92.90;;;;;;5078033;28;20380;-84
2021/01/06 07:02:04;;;;;;;28.58;19.83;;;3.90;92.70;;;;;;5095979;28;20111;-84
2021/01/06 07:04:38;;;;;;;30.15;18.38;;;3.90;92.70;;;;;;5077855;28;20039;-84
2021/01/06 07:07:05;;;;;;;31.38;18.83;;;3.90;92.70;;;;;;5077917;28;20028;-84
2021/01/06 07:09:37;;;;;;;28.65;19.38;;;3.90;92.70;;;;;;5061202;28;20097;-84
2021/01/06 07:12:10;;;;;;;31.08;19.83;;;3.90;92.70;;;;;;5077389;28;20028;-83
2021/01/06 07:14:57;;;;;;;29.52;19.42;;;3.90;92.60;;;;;;5077708;28;20020;-84
2021/01/06 07:17:40;;;;;;;29.10;18.35;;;3.90;92.60;;;;;;5077420;28;20549;-83
2021/01/06 07:20:10;;;;;;;27.40;18.48;;;3.90;92.70;;;;;;5094442;28;20439;-84
2021/01/06 07:22:37;;;;;;;;;;;3.80;92.60;;;;;;5077800;28;20056;-84
2021/01/06 07:25:23;;;;;;;30.27;19.95;;;3.80;92.60;;;;;;5077841;28;20305;-83
2021/01/06 07:27:53;;;;;;;29.30;19.20;;;3.80;92.70;;;;;;5095324;28;21980;-83
2021/01/06 07:30:34;;;;;;;26.85;17.90;;;3.80;92.60;;;;;;5077260;28;20020;-83
2021/01/06 07:33:10;;;;;;;27.92;18.60;;;3.70;92.60;;;;;;5094923;28;20055;-80
2021/01/06 07:35:39;;;;;;;29.73;20.20;;;3.70;92.60;;;;;;5076639;28;20020;-80
2021/01/06 07:38:09;;;;;;;31.85;19.42;;;3.70;92.50;;;;;;5076784;28;20383;-83
2021/01/06 07:40:44;;;;;;;31.42;19.50;;;3.70;92.50;;;;;;5077809;28;20115;-84
2021/01/06 07:43:22;;;;;;;31.48;20.60;;;3.70;92.50;;;;;;5060545;28;20032;-83
2021/01/06 07:46:30;;;;;;;27.70;18.63;;;3.70;92.50;;;;;;5076432;28;20031;-83
2021/01/06 07:49:10;;;;;;;27.02;18.83;;;3.70;92.60;;;;;;5073321;28;20123;-84
2021/01/06 07:52:24;;;;;;;31.45;19.17;;;3.60;92.50;;;;;;5075827;28;20106;-83
2021/01/06 07:54:59;;;;;;;34.97;21.35;;;3.60;92.50;;;;;;5049984;28;20104;-83
2021/01/06 07:57:47;;;;;;;31.58;20.25;;;3.60;92.50;;;;;;5076716;28;20028;-83
2021/01/06 08:00:15;;;;;;;31.48;20.65;;;3.60;92.50;;;;;;5076417;28;20031;-83
2021/01/06 08:02:57;;;;;;;26.90;18.65;;;3.70;92.50;;;;;;5076860;28;20016;-83
2021/01/06 08:05:27;;;;;;;28.02;19.20;;;3.70;92.50;;;;;;5076415;28;20036;-83
2021/01/06 08:08:14;;;;;;;28.33;19.77;;;3.70;92.40;;;;;;5093900;28;20032;-83
2021/01/06 08:10:43;;;;;;;30.17;19.38;;;3.70;92.40;;;;;;5080952;28;20032;-84
2021/01/06 08:13:27;;;;;;;26.10;18.90;;;3.70;92.40;;;;;;5076608;28;20017;-83
2021/01/06 08:16:15;;;;;;;26.63;18.83;;;3.70;92.40;;;;;;5076162;28;20024;-83
2021/01/06 08:19:08;;;;;;;24.42;18.20;;;3.70;92.40;;;;;;5055846;28;20043;-83
2021/01/06 08:21:42;;;;;;;28.05;18.60;;;3.70;92.30;;;;;;5074059;28;20116;-83
2021/01/06 08:24:20;;;;;;;27.27;17.42;;;3.70;92.20;;;;;;5073896;28;20021;-83
2021/01/06 08:26:51;;;;;;;27.90;18.77;;;3.80;92.20;;;;;;5056156;28;20145;-83
2021/01/06 08:29:16;;;;;;;23.75;17.73;;;3.80;92.10;;;;;;5056390;28;20051;-83
2021/01/06 08:31:44;;;;;;;25.58;16.83;;;3.80;92.20;;;;;;5055640;28;20075;-83
2021/01/06 08:34:29;;;;;;;27.27;18.00;;;3.80;92.10;;;;;;5074056;28;20028;-83
2021/01/06 08:37:07;;;;;;;24.60;16.95;;;3.80;92.10;;;;;;5056035;28;20480;-83
2021/01/06 08:39:54;;;;;;;20.08;14.80;;;3.90;92.10;;;;;;5056037;28;20028;-83
2021/01/06 08:42:42;;;;;;;20.98;14.02;;;3.90;92.00;;;;;;5072289;28;20028;-83
2021/01/06 08:45:21;;;;;;;18.85;14.13;;;3.90;91.90;;;;;;5075503;28;20035;-83
2021/01/06 08:47:46;;;;;;;18.63;13.18;;;3.80;91.50;;;;;;5094075;28;20012;-83
2021/01/06 08:50:15;;;;;;;21.08;13.82;;;3.80;91.30;;;;;;5059046;28;20532;-83
2021/01/06 08:52:41;;;;;;;19.38;12.40;;;3.80;91.20;;;;;;5075831;28;20039;-83
2021/01/06 08:55:29;;;;;;;20.17;13.05;;;3.80;91.30;;;;;;5059107;28;20031;-82
2021/01/06 08:58:16;;;;;;;18.57;12.87;;;3.80;91.00;;;;;;5036008;28;20548;-83
2021/01/06 09:00:45;;;;;;;18.35;13.38;;;3.70;90.90;;;;;;5089376;28;20635;-83
2021/01/06 09:03:18;;;;;;;18.17;13.30;;;3.70;90.80;;;;;;5075806;28;20025;-82
2021/01/06 09:06:25;;;;;;;18.23;12.18;;;3.70;90.70;;;;;;5075653;28;20043;-81
2021/01/06 09:09:14;;;;;;;20.48;13.80;;;3.70;90.90;;;;;;5058431;28;20032;-83
2021/01/06 09:11:51;;;;;;;16.08;11.95;;;3.70;90.90;;;;;;5041530;28;20037;-84
2021/01/06 09:14:16;;;;;;;15.57;11.43;;;3.70;90.60;;;;;;5055396;28;20028;-82
2021/01/06 09:16:49;;;;;;;17.30;11.90;;;3.70;90.70;;;;;;5055686;28;20520;-82
2021/01/06 09:19:31;;;;;;;16.13;11.93;;;3.80;90.50;;;;;;5066626;28;20027;-82
2021/01/06 09:21:59;;;;;;;16.20;11.18;;;3.80;90.50;;;;;;5075064;28;20051;-81
2021/01/06 09:24:34;;;;;;;17.75;12.13;;;3.90;90.50;;;;;;5058966;28;20076;-84
2021/01/06 09:27:04;;;;;;;18.38;12.45;;;3.90;90.30;;;;;;5093272;28;20023;-81
2021/01/06 09:29:36;;;;;;;15.07;11.32;;;3.90;90.00;;;;;;5075860;28;20025;-84
2021/01/06 09:32:08;;;;;;;18.95;12.02;;;4.00;90.10;;;;;;5093402;28;20027;-84
2021/01/06 09:34:39;;;;;;;23.80;13.10;;;4.10;90.10;;;;;;5094749;28;20023;-85
2021/01/06 09:37:06;;;;;;;18.88;13.43;;;4.10;89.30;;;;;;5075581;28;20028;-83
2021/01/06 09:39:33;;;;;;;17.75;12.68;;;4.10;89.60;;;;;;5058766;28;20157;-82
2021/01/06 09:42:01;;;;;;;17.45;13.43;;;4.20;89.40;;;;;;5075823;28;20020;-81
2021/01/06 09:44:30;;;;;;;19.25;13.35;;;4.20;89.50;;;;;;5062489;28;20031;-81
2021/01/06 09:47:17;;;;;;;20.80;14.10;;;4.30;89.60;;;;;;5062233;28;20028;-81
2021/01/06 09:49:52;;;;;;;21.38;13.73;;;4.30;89.70;;;;;;5078689;28;20032;-81
2021/01/06 09:52:27;;;;;;;20.73;12.73;;;4.40;89.40;;;;;;5078670;28;20035;-81
2021/01/06 09:54:55;;;;;;;16.42;12.00;;;4.40;89.10;;;;;;5078620;28;20024;-81
2021/01/06 09:57:22;;;;;;;20.40;13.43;;;4.40;88.50;;;;;;5078590;28;20032;-82
2021/01/06 09:59:57;;;;;;;22.75;13.88;;;4.50;88.70;;;;;;5079665;28;20066;-88
2021/01/06 10:02:31;;;;;;;20.20;13.48;;;4.50;88.70;;;;;;5079738;28;20027;-87
2021/01/06 10:05:23;;;;;;;22.88;14.38;;;4.40;88.40;;;;;;5080169;28;20027;-87
2021/01/06 10:08:10;;;;;;;18.50;12.98;;;4.40;88.40;;;;;;5056814;28;20139;-85
2021/01/06 10:10:38;;;;;;;19.92;13.27;;;4.40;88.70;;;;;;5079281;28;20024;-82
2021/01/06 10:13:35;;;;;;;24.90;13.88;;;4.30;88.30;;;;;;5096687;28;20020;-83
2021/01/06 10:16:13;;;;;;;17.77;12.93;;;4.30;88.50;;;;;;5078367;28;20430;-82
2021/01/06 10:19:04;;;;;;;23.90;13.20;;;4.30;88.60;;;;;;5077755;28;20031;-81
2021/01/06 10:21:52;;;;;;;21.63;13.57;;;4.30;88.50;;;;;;5077987;28;20292;-82
2021/01/06 10:24:52;;;;;;;24.65;15.18;;;4.30;89.00;;;;;;5078265;28;20032;-83
2021/01/06 10:27:33;;;;;;;17.67;13.80;;;4.30;89.00;;;;;;5076238;28;20034;-82
2021/01/06 10:30:11;;;;;;;21.17;14.48;;;4.30;89.10;;;;;;5057687;28;20029;-81
2021/01/06 10:32:39;;;;;;;19.73;13.68;;;4.30;89.10;;;;;;5057916;28;20025;-82
2021/01/06 10:35:39;;;;;;;18.83;13.38;;;4.30;88.60;;;;;;5058072;28;20032;-83
2021/01/06 10:38:27;;;;;;;18.50;12.82;;;4.30;88.80;;;;;;5069621;28;20024;-82
2021/01/06 10:41:09;;;;;;;20.45;14.07;;;4.30;88.30;;;;;;5078316;28;20024;-83
2021/01/06 10:43:40;;;;;;;19.50;12.95;;;4.20;88.50;;;;;;5077916;28;20028;-83
2021/01/06 10:46:36;;;;;;;18.83;12.95;;;4.30;88.50;;;;;;5078099;28;20031;-83
2021/01/06 10:49:05;;;;;;;17.80;13.00;;;4.40;88.70;;;;;;5077824;28;20024;-81
2021/01/06 10:51:56;;;;;;;17.98;12.18;;;4.40;88.20;;;;;;5077829;28;20031;-82
2021/01/06 10:54:53;;;;;;;16.30;11.85;;;4.40;88.50;;;;;;5095742;28;20440;-82
2021/01/06 10:57:47;;;;;;;18.48;12.52;;;4.50;88.10;;;;;;5019345;28;20186;-81
2021/01/06 11:00:26;;;;;;;18.65;12.23;;;4.50;88.20;;;;;;5055465;28;20047;-82
2021/01/06 11:03:33;;;;;;;17.48;12.05;;;4.60;87.90;;;;;;5037570;28;20017;-86
2021/01/06 11:06:11;;;;;;;16.40;12.02;;;4.60;88.20;;;;;;5057466;28;20511;-87
2021/01/06 11:08:52;;;;;;;18.75;11.95;;;4.70;88.00;;;;;;5057829;28;20155;-80
2021/01/06 11:11:33;;;;;;;15.05;10.95;;;4.80;88.00;;;;;;5074157;28;20035;-81
2021/01/06 11:14:17;;;;;;;15.95;12.68;;;4.80;88.00;;;;;;5057412;28;20016;-81
2021/01/06 11:16:46;;;;;;;18.65;13.05;;;4.90;86.50;;;;;;5057148;28;20032;-80
2021/01/06 11:19:53;;;;;;;19.77;12.32;;;4.80;86.80;;;;;;5049351;28;20056;-84
2021/01/06 11:22:30;;;;;;;16.10;11.57;;;4.80;87.10;;;;;;5068670;28;20449;-86
2021/01/06 11:25:01;;;;;;;17.48;11.80;;;4.80;87.40;;;;;;5095024;28;20074;-89
2021/01/06 11:27:32;;;;;;;20.95;13.27;;;4.90;87.10;;;;;;5077052;28;20028;-86
2021/01/06 11:30:24;;;;;;;17.80;12.95;;;5.00;87.10;;;;;;5076959;28;20024;-83
2021/01/06 11:33:17;;;;;;;18.45;12.57;;;5.00;87.00;;;;;;5076367;28;20024;-83
2021/01/06 11:35:59;;;;;;;20.85;13.40;;;5.00;86.80;;;;;;5076590;28;20061;-83
2021/01/06 11:38:37;;;;;;;17.00;12.45;;;5.10;86.90;;;;;;5057292;28;20027;-85
2021/01/06 11:41:03;;;;;;;17.98;13.05;;;5.10;86.60;;;;;;5083146;28;20036;-85
2021/01/06 11:43:58;;;;;;;18.83;13.23;;;5.10;86.10;;;;;;5095330;28;20507;-85
2021/01/06 11:46:29;;;;;;;15.88;11.52;;;5.10;85.70;;;;;;5066513;28;20020;-78
2021/01/06 11:49:42;;;;;;;18.35;12.90;;;5.10;85.90;;;;;;5095378;28;20024;-79
2021/01/06 11:52:44;;;;;;;16.73;12.05;;;5.10;86.20;;;;;;5058387;28;20136;-77
2021/01/06 11:55:13;;;;;;;17.85;13.10;;;5.10;86.10;;;;;;5075639;28;20111;-78
2021/01/06 11:57:50;;;;;;;15.80;11.90;;;5.10;85.40;;;;;;5075689;28;20020;-77
2021/01/06 12:00:34;;;;;;;19.77;13.90;;;5.00;85.90;;;;;;5096312;28;20134;-78
2021/01/06 12:03:17;;;;;;;18.27;13.65;;;5.00;85.80;;;;;;5060135;28;20031;-78
2021/01/06 12:06:14;;;;;;;17.00;12.35;;;4.90;85.70;;;;;;5075382;28;20028;-78
2021/01/06 12:08:40;;;;;;;19.55;13.10;;;4.90;86.50;;;;;;5058423;28;20075;-78
2021/01/06 12:11:09;;;;;;;16.40;12.32;;;5.00;86.60;;;;;;5075877;28;20051;-78
2021/01/06 12:13:44;;;;;;;17.88;12.38;;;5.00;85.60;;;;;;5075638;28;20422;-78
2021/01/06 12:16:20;;;;;;;20.50;14.32;;;4.90;85.60;;;;;;5075908;28;20027;-78
2021/01/06 12:19:27;;;;;;;21.40;15.00;;;4.90;85.70;;;;;;5093826;28;20038;-78
2021/01/06 12:22:09;;;;;;;19.63;14.18;;;4.80;85.20;;;;;;5093062;28;20044;-78
2021/01/06 12:24:34;;;;;;;17.10;12.93;;;4.80;86.00;;;;;;5075848;28;20119;-78
2021/01/06 12:27:28;;;;;;;20.50;14.05;;;4.90;86.20;;;;;;5075872;28;20110;-78
2021/01/06 12:30:01;;;;;;;19.35;14.10;;;4.90;85.60;;;;;;5102600;28;20384;-77
2021/01/06 12:32:38;;;;;;;22.88;14.80;;;4.80;85.70;;;;;;5088425;28;20024;-77
2021/01/06 12:35:06;;;;;;;19.48;13.90;;;4.90;86.10;;;;;;5075558;28;20532;-77
2021/01/06 12:37:34;;;;;;;17.43;12.23;;;4.90;85.70;;;;;;5093735;28;20027;-78
2021/01/06 12:39:59;;;;;;;21.73;13.63;;;4.90;86.00;;;;;;5075552;28;20020;-78
2021/01/06 12:42:36;;;;;;;18.23;13.52;;;4.90;86.30;;;;;;5075519;28;20020;-79
2021/01/06 12:45:17;;;;;;;21.75;14.77;;;5.00;86.60;;;;;;5093720;28;20020;-82
2021/01/06 12:47:54;;;;;;;21.38;13.13;;;5.10;86.10;;;;;;5093471;28;20028;-77
2021/01/06 12:50:25;;;;;;;18.63;12.52;;;5.20;85.60;;;;;;5075585;28;20031;-81
2021/01/06 12:52:59;;;;;;;18.30;12.02;;;5.10;85.10;;;;;;5093731;28;20023;-85
2021/01/06 12:55:55;;;;;;;16.20;11.82;;;5.00;84.40;;;;;;5094155;28;20027;-82
2021/01/06 12:59:00;;;;;;;17.73;12.43;;;5.00;85.20;;;;;;5093588;28;20023;-82
2021/01/06 13:01:43;;;;;;;22.42;12.15;;;5.20;86.00;;;;;;5067068;28;20034;-81
2021/01/06 13:04:10;;;;;;;17.55;11.80;;;5.30;86.50;;;;;;5075332;28;20384;-81
2021/01/06 13:06:35;;;;;;;19.85;12.52;;;5.60;86.40;;;;;;5075281;28;20496;-81
2021/01/06 13:09:13;;;;;;;17.48;11.98;;;5.70;85.90;;;;;;5093305;28;20032;-82
2021/01/06 13:11:39;;;;;;;13.95;10.82;;;5.90;85.30;;;;;;5075059;28;20032;-82
2021/01/06 13:14:10;;;;;;;17.05;11.38;;;6.00;84.60;;;;;;5093244;28;20028;-82
2021/01/06 13:16:41;;;;;;;16.35;11.18;;;6.00;84.60;;;;;;5093344;28;20499;-82
2021/01/06 13:19:30;;;;;;;13.15;10.25;;;6.00;84.10;;;;;;5080224;28;20024;-82
2021/01/06 13:22:21;;;;;;;13.32;10.02;;;6.00;84.40;;;;;;5075796;28;20392;-82
2021/01/06 13:25:13;;;;;;;16.80;10.77;;;6.00;84.10;;;;;;5075544;28;20040;-83